sensor_id;sensor_type;location;lat;lon;timestamp;pressure;altitude;pressure_sealevel;temperature;humidity
15634;BME280;14654;48.898;8.308;2023-04-02T00:00:17;99534.13;;;9.35;100.00
15634;BME280;14654;48.898;8.308;2023-04-02T00:08:03;99542.81;;;9.30;100.00
15634;BME280;14654;48.898;8.308;2023-04-02T00:15:45;99543.75;;;9.25;100.00
15634;BME280;14654;48.898;8.308;2023-04-02T00:18:15;99544.66;;;9.22;100.00
15634;BME280;14654;48.898;8.308;2023-04-02T00:20:45;99537.75;;;9.23;100.00
15634;BME280;14654;48.898;8.308;2023-04-02T00:23:12;99536.94;;;9.21;100.00
15634;BME280;14654;48.898;8.308;2023-04-02T00:25:42;99544.66;;;9.21;100.00
15634;BME280;14654;48.898;8.308;2023-04-02T00:28:18;99547.25;;;9.22;100.00
15634;BME280;14654;48.898;8.308;2023-04-02T00:30:54;99548.13;;;9.21;100.00
15634;BME280;14654;48.898;8.308;2023-04-02T00:33:23;99551.56;;;9.20;100.00
15634;BME280;14654;48.898;8.308;2023-04-02T00:35:51;99548.13;;;9.20;100.00
15634;BME280;14654;48.898;8.308;2023-04-02T00:38:31;99548.13;;;9.21;100.00
15634;BME280;14654;48.898;8.308;2023-04-02T00:41:00;99541.19;;;9.23;100.00
15634;BME280;14654;48.898;8.308;2023-04-02T00:43:28;99548.13;;;9.21;100.00
15634;BME280;14654;48.898;8.308;2023-04-02T00:46:00;99551.53;;;9.22;100.00
15634;BME280;14654;48.898;8.308;2023-04-02T00:50:58;99548.09;;;9.23;100.00
15634;BME280;14654;48.898;8.308;2023-04-02T00:53:29;99550.66;;;9.23;100.00
15634;BME280;14654;48.898;8.308;2023-04-02T00:55:57;99550.63;;;9.24;100.00
15634;BME280;14654;48.898;8.308;2023-04-02T00:58:32;99547.19;;;9.25;100.00
15634;BME280;14654;48.898;8.308;2023-04-02T01:00:59;99549.75;;;9.27;100.00
15634;BME280;14654;48.898;8.308;2023-04-02T01:11:52;99554.13;;;9.22;100.00
15634;BME280;14654;48.898;8.308;2023-04-02T01:17:11;99558.41;;;9.23;100.00
15634;BME280;14654;48.898;8.308;2023-04-02T01:22:47;99558.41;;;9.23;100.00
15634;BME280;14654;48.898;8.308;2023-04-02T01:25:21;99561.81;;;9.25;100.00
15634;BME280;14654;48.898;8.308;2023-04-02T01:27:54;99568.69;;;9.24;100.00
15634;BME280;14654;48.898;8.308;2023-04-02T01:30:21;99563.53;;;9.24;100.00
15634;BME280;14654;48.898;8.308;2023-04-02T01:32:48;99567.81;;;9.27;100.00
15634;BME280;14654;48.898;8.308;2023-04-02T01:35:14;99569.56;;;9.25;100.00
15634;BME280;14654;48.898;8.308;2023-04-02T01:37:51;99575.56;;;9.27;100.00
15634;BME280;14654;48.898;8.308;2023-04-02T01:43:26;99572.03;;;9.31;100.00
15634;BME280;14654;48.898;8.308;2023-04-02T01:45:56;99575.53;;;9.30;100.00
15634;BME280;14654;48.898;8.308;2023-04-02T01:48:24;99574.63;;;9.31;100.00
15634;BME280;14654;48.898;8.308;2023-04-02T01:50:53;99577.22;;;9.31;100.00
15634;BME280;14654;48.898;8.308;2023-04-02T01:53:22;99577.22;;;9.31;100.00
15634;BME280;14654;48.898;8.308;2023-04-02T01:55:54;99584.94;;;9.33;100.00
15634;BME280;14654;48.898;8.308;2023-04-02T01:58:25;99584.03;;;9.35;100.00
15634;BME280;14654;48.898;8.308;2023-04-02T02:01:03;99591.78;;;9.37;100.00
15634;BME280;14654;48.898;8.308;2023-04-02T02:03:30;99581.47;;;9.35;100.00
15634;BME280;14654;48.898;8.308;2023-04-02T02:05:56;99583.19;;;9.33;100.00
15634;BME280;14654;48.898;8.308;2023-04-02T02:08:30;99585.78;;;9.33;100.00
15634;BME280;14654;48.898;8.308;2023-04-02T02:10:57;99583.25;;;9.32;100.00
15634;BME280;14654;48.898;8.308;2023-04-02T02:13:22;99591.81;;;9.32;100.00
15634;BME280;14654;48.898;8.308;2023-04-02T02:15:47;99597.88;;;9.31;100.00
15634;BME280;14654;48.898;8.308;2023-04-02T02:18:16;99599.56;;;9.32;100.00
15634;BME280;14654;48.898;8.308;2023-04-02T02:20:43;99604.78;;;9.30;100.00
15634;BME280;14654;48.898;8.308;2023-04-02T02:23:09;99594.44;;;9.30;100.00
15634;BME280;14654;48.898;8.308;2023-04-02T02:25:36;99605.69;;;9.28;100.00
15634;BME280;14654;48.898;8.308;2023-04-02T02:28:17;99603.09;;;9.28;100.00
15634;BME280;14654;48.898;8.308;2023-04-02T02:31:04;99602.25;;;9.24;100.00
15634;BME280;14654;48.898;8.308;2023-04-02T02:33:36;99615.19;;;9.24;100.00
15634;BME280;14654;48.898;8.308;2023-04-02T02:36:07;99613.50;;;9.22;100.00
15634;BME280;14654;48.898;8.308;2023-04-02T02:38:43;99608.31;;;9.23;100.00
15634;BME280;14654;48.898;8.308;2023-04-02T02:43:55;99616.03;;;9.25;100.00
15634;BME280;14654;48.898;8.308;2023-04-02T02:46:23;99618.63;;;9.23;100.00
15634;BME280;14654;48.898;8.308;2023-04-02T02:48:52;99622.97;;;9.23;100.00
15634;BME280;14654;48.898;8.308;2023-04-02T02:51:39;99624.69;;;9.21;100.00
15634;BME280;14654;48.898;8.308;2023-04-02T02:54:05;99623.88;;;9.19;100.00
15634;BME280;14654;48.898;8.308;2023-04-02T02:56:34;99625.59;;;9.18;100.00
15634;BME280;14654;48.898;8.308;2023-04-02T02:59:04;99632.44;;;9.21;100.00
15634;BME280;14654;48.898;8.308;2023-04-02T03:01:32;99636.78;;;9.20;100.00
15634;BME280;14654;48.898;8.308;2023-04-02T03:03:58;99632.44;;;9.21;100.00
15634;BME280;14654;48.898;8.308;2023-04-02T03:06:23;99634.19;;;9.20;100.00
15634;BME280;14654;48.898;8.308;2023-04-02T03:13:55;99641.03;;;9.23;100.00
15634;BME280;14654;48.898;8.308;2023-04-02T03:16:33;99641.06;;;9.21;100.00
15634;BME280;14654;48.898;8.308;2023-04-02T03:21:45;99643.63;;;9.23;100.00
15634;BME280;14654;48.898;8.308;2023-04-02T03:27:16;99653.13;;;9.19;100.00
15634;BME280;14654;48.898;8.308;2023-04-02T03:29:53;99655.72;;;9.19;100.00
15634;BME280;14654;48.898;8.308;2023-04-02T03:32:25;99650.56;;;9.19;100.00
15634;BME280;14654;48.898;8.308;2023-04-02T03:34:56;99657.44;;;9.19;100.00
15634;BME280;14654;48.898;8.308;2023-04-02T03:37:39;99665.22;;;9.17;100.00
15634;BME280;14654;48.898;8.308;2023-04-02T03:40:27;99668.66;;;9.16;100.00
15634;BME280;14654;48.898;8.308;2023-04-02T03:43:02;99662.66;;;9.14;100.00
15634;BME280;14654;48.898;8.308;2023-04-02T03:45:52;99662.66;;;9.14;100.00
15634;BME280;14654;48.898;8.308;2023-04-02T03:48:48;99668.72;;;9.11;100.00
15634;BME280;14654;48.898;8.308;2023-04-02T03:51:35;99677.31;;;9.12;100.00
15634;BME280;14654;48.898;8.308;2023-04-02T03:54:02;99667.84;;;9.12;100.00
15634;BME280;14654;48.898;8.308;2023-04-02T03:56:30;99677.31;;;9.12;100.00
15634;BME280;14654;48.898;8.308;2023-04-02T04:04:51;99679.03;;;9.13;100.00
15634;BME280;14654;48.898;8.308;2023-04-02T04:07:28;99681.59;;;9.14;100.00
15634;BME280;14654;48.898;8.308;2023-04-02T04:09:55;99687.59;;;9.15;100.00
15634;BME280;14654;48.898;8.308;2023-04-02T04:12:33;99688.44;;;9.17;100.00
15634;BME280;14654;48.898;8.308;2023-04-02T04:15:06;99681.53;;;9.18;100.00
15634;BME280;14654;48.898;8.308;2023-04-02T04:17:54;99686.69;;;9.19;100.00
15634;BME280;14654;48.898;8.308;2023-04-02T04:20:49;99687.53;;;9.20;100.00
15634;BME280;14654;48.898;8.308;2023-04-02T04:29:17;99700.47;;;9.17;100.00
15634;BME280;14654;48.898;8.308;2023-04-02T04:31:50;99704.81;;;9.16;100.00
15634;BME280;14654;48.898;8.308;2023-04-02T04:34:24;99710.81;;;9.17;100.00
15634;BME280;14654;48.898;8.308;2023-04-02T04:36:57;99716.03;;;9.13;100.00
15634;BME280;14654;48.898;8.308;2023-04-02T04:39:46;99716.03;;;9.13;100.00
15634;BME280;14654;48.898;8.308;2023-04-02T04:42:18;99720.31;;;9.14;100.00
15634;BME280;14654;48.898;8.308;2023-04-02T04:44:56;99725.50;;;9.13;100.00
15634;BME280;14654;48.898;8.308;2023-04-02T04:47:47;99728.97;;;9.10;100.00
15634;BME280;14654;48.898;8.308;2023-04-02T04:52:54;99739.31;;;9.07;100.00
15634;BME280;14654;48.898;8.308;2023-04-02T04:55:29;99747.91;;;9.09;100.00
15634;BME280;14654;48.898;8.308;2023-04-02T05:01:35;99751.38;;;9.05;100.00
15634;BME280;14654;48.898;8.308;2023-04-02T05:03:50;99759.13;;;9.05;100.00
15634;BME280;14654;48.898;8.308;2023-04-02T05:08:59;99771.22;;;9.00;100.00
15634;BME280;14654;48.898;8.308;2023-04-02T05:11:31;99766.06;;;9.00;100.00
15634;BME280;14654;48.898;8.308;2023-04-02T05:14:01;99770.41;;;8.98;100.00
15634;BME280;14654;48.898;8.308;2023-04-02T05:16:36;99766.09;;;8.98;100.00
15634;BME280;14654;48.898;8.308;2023-04-02T05:19:15;99768.69;;;8.97;100.00
15634;BME280;14654;48.898;8.308;2023-04-02T05:22:33;99784.19;;;8.95;100.00
15634;BME280;14654;48.898;8.308;2023-04-02T05:24:39;99785.91;;;8.95;100.00
15634;BME280;14654;48.898;8.308;2023-04-02T05:27:20;99791.06;;;8.96;100.00
15634;BME280;14654;48.898;8.308;2023-04-02T05:29:59;99794.50;;;8.97;100.00
15634;BME280;14654;48.898;8.308;2023-04-02T05:32:36;99789.34;;;8.95;100.00
15634;BME280;14654;48.898;8.308;2023-04-02T05:35:05;99796.25;;;8.95;100.00
15634;BME280;14654;48.898;8.308;2023-04-02T05:37:32;99793.63;;;8.96;100.00
15634;BME280;14654;48.898;8.308;2023-04-02T05:40:08;99801.38;;;8.96;100.00
15634;BME280;14654;48.898;8.308;2023-04-02T05:42:38;99810.84;;;8.99;100.00
15634;BME280;14654;48.898;8.308;2023-04-02T05:45:20;99811.66;;;9.03;100.00
15634;BME280;14654;48.898;8.308;2023-04-02T05:47:50;99818.53;;;9.02;100.00
15634;BME280;14654;48.898;8.308;2023-04-02T05:52:56;99814.22;;;9.06;100.00
15634;BME280;14654;48.898;8.308;2023-04-02T05:55:30;99816.72;;;9.09;100.00
15634;BME280;14654;48.898;8.308;2023-04-02T05:58:24;99810.72;;;9.08;100.00
15634;BME280;14654;48.898;8.308;2023-04-02T06:06:47;99826.16;;;9.13;100.00
15634;BME280;14654;48.898;8.308;2023-04-02T06:09:42;99830.47;;;9.14;100.00
15634;BME280;14654;48.898;8.308;2023-04-02T06:14:41;99841.63;;;9.16;100.00
15634;BME280;14654;48.898;8.308;2023-04-02T06:17:11;99848.50;;;9.17;100.00
15634;BME280;14654;48.898;8.308;2023-04-02T06:19:38;99846.78;;;9.16;100.00
15634;BME280;14654;48.898;8.308;2023-04-02T06:24:44;99863.94;;;9.22;100.00
15634;BME280;14654;48.898;8.308;2023-04-02T06:27:14;99861.34;;;9.23;100.00
15634;BME280;14654;48.898;8.308;2023-04-02T06:29:44;99865.59;;;9.27;100.00
15634;BME280;14654;48.898;8.308;2023-04-02T06:32:12;99864.75;;;9.27;100.00
15634;BME280;14654;48.898;8.308;2023-04-02T06:34:39;99876.81;;;9.28;100.00
15634;BME280;14654;48.898;8.308;2023-04-02T06:37:18;99875.06;;;9.30;100.00
15634;BME280;14654;48.898;8.308;2023-04-02T06:39:45;99884.50;;;9.33;100.00
15634;BME280;14654;48.898;8.308;2023-04-02T06:42:15;99874.97;;;9.36;100.00
15634;BME280;14654;48.898;8.308;2023-04-02T06:44:42;99884.38;;;9.42;100.00
15634;BME280;14654;48.898;8.308;2023-04-02T06:50:00;99891.09;;;9.60;100.00
15634;BME280;14654;48.898;8.308;2023-04-02T06:52:36;99905.63;;;9.69;100.00
15634;BME280;14654;48.898;8.308;2023-04-02T06:55:16;99905.56;;;9.75;100.00
15634;BME280;14654;48.898;8.308;2023-04-02T06:57:48;99906.31;;;9.83;100.00
15634;BME280;14654;48.898;8.308;2023-04-02T07:00:36;99904.53;;;9.90;100.00
15634;BME280;14654;48.898;8.308;2023-04-02T07:03:06;99918.25;;;9.94;100.00
15634;BME280;14654;48.898;8.308;2023-04-02T07:05:31;99921.63;;;10.00;100.00
15634;BME280;14654;48.898;8.308;2023-04-02T07:07:57;99929.31;;;10.05;100.00
15634;BME280;14654;48.898;8.308;2023-04-02T07:10:22;99924.09;;;10.10;100.00
15634;BME280;14654;48.898;8.308;2023-04-02T07:12:47;99923.16;;;10.15;100.00
15634;BME280;14654;48.898;8.308;2023-04-02T07:15:17;99929.13;;;10.20;100.00
15634;BME280;14654;48.898;8.308;2023-04-02T07:17:44;99933.38;;;10.23;100.00
15634;BME280;14654;48.898;8.308;2023-04-02T07:20:23;99935.09;;;10.26;100.00
15634;BME280;14654;48.898;8.308;2023-04-02T07:22:50;99940.16;;;10.32;100.00
15634;BME280;14654;48.898;8.308;2023-04-02T07:25:15;99941.84;;;10.36;100.00
15634;BME280;14654;48.898;8.308;2023-04-02T07:27:41;99944.41;;;10.42;100.00
15634;BME280;14654;48.898;8.308;2023-04-02T07:30:06;99941.69;;;10.50;100.00
15634;BME280;14654;48.898;8.308;2023-04-02T07:32:32;99951.88;;;10.61;100.00
15634;BME280;14654;48.898;8.308;2023-04-02T07:34:57;99956.94;;;10.70;100.00
15634;BME280;14654;48.898;8.308;2023-04-02T07:37:22;99956.78;;;10.79;100.00
15634;BME280;14654;48.898;8.308;2023-04-02T07:39:48;99953.25;;;10.87;100.00
15634;BME280;14654;48.898;8.308;2023-04-02T07:42:13;99960.06;;;10.92;100.00
15634;BME280;14654;48.898;8.308;2023-04-02T07:44:38;99964.31;;;10.96;100.00
15634;BME280;14654;48.898;8.308;2023-04-02T07:47:04;99965.94;;;11.01;100.00
15634;BME280;14654;48.898;8.308;2023-04-02T07:49:29;99970.16;;;11.06;100.00
15634;BME280;14654;48.898;8.308;2023-04-02T07:51:55;99974.44;;;11.10;100.00
15634;BME280;14654;48.898;8.308;2023-04-02T07:54:20;99979.53;;;11.17;100.00
15634;BME280;14654;48.898;8.308;2023-04-02T07:56:45;99984.63;;;11.20;100.00
15634;BME280;14654;48.898;8.308;2023-04-02T07:59:10;99988.88;;;11.24;100.00
15634;BME280;14654;48.898;8.308;2023-04-02T08:01:36;99987.09;;;11.29;100.00
15634;BME280;14654;48.898;8.308;2023-04-02T08:04:03;100005.13;;;11.34;100.00
15634;BME280;14654;48.898;8.308;2023-04-02T08:06:29;100001.63;;;11.36;100.00
15634;BME280;14654;48.898;8.308;2023-04-02T08:08:56;100009.31;;;11.42;100.00
15634;BME280;14654;48.898;8.308;2023-04-02T08:11:22;100007.50;;;11.48;100.00
15634;BME280;14654;48.898;8.308;2023-04-02T08:13:47;100005.63;;;11.56;100.00
15634;BME280;14654;48.898;8.308;2023-04-02T08:16:13;100006.28;;;11.67;100.00
15634;BME280;14654;48.898;8.308;2023-04-02T08:18:38;100012.06;;;11.82;100.00
15634;BME280;14654;48.898;8.308;2023-04-02T08:21:08;100012.75;;;11.93;100.00
15634;BME280;14654;48.898;8.308;2023-04-02T08:23:35;100016.00;;;12.03;100.00
15634;BME280;14654;48.898;8.308;2023-04-02T08:26:01;100018.41;;;12.15;100.00
15634;BME280;14654;48.898;8.308;2023-04-02T08:28:26;100019.91;;;12.26;100.00
15634;BME280;14654;48.898;8.308;2023-04-02T08:30:52;100023.91;;;12.41;100.00
15634;BME280;14654;48.898;8.308;2023-04-02T08:33:18;100035.69;;;12.57;100.00
15634;BME280;14654;48.898;8.308;2023-04-02T08:35:45;100031.84;;;12.75;100.00
15634;BME280;14654;48.898;8.308;2023-04-02T08:38:15;100030.53;;;12.95;100.00
15634;BME280;14654;48.898;8.308;2023-04-02T08:40:43;100036.19;;;13.13;100.00
15634;BME280;14654;48.898;8.308;2023-04-02T08:49:01;100052.66;;;13.51;100.00
15634;BME280;14654;48.898;8.308;2023-04-02T08:51:31;100054.06;;;13.63;100.00
15634;BME280;14654;48.898;8.308;2023-04-02T08:54:05;100058.88;;;13.78;100.00
15634;BME280;14654;48.898;8.308;2023-04-02T08:56:42;100053.13;;;14.00;100.00
15634;BME280;14654;48.898;8.308;2023-04-02T08:59:21;100050.72;;;14.24;100.00
15634;BME280;14654;48.898;8.308;2023-04-02T09:02:01;100059.50;;;14.51;100.00
15634;BME280;14654;48.898;8.308;2023-04-02T09:04:32;100061.41;;;14.76;99.73
15634;BME280;14654;48.898;8.308;2023-04-02T09:06:58;100060.03;;;14.94;98.68
15634;BME280;14654;48.898;8.308;2023-04-02T09:09:25;100066.50;;;15.09;97.38
15634;BME280;14654;48.898;8.308;2023-04-02T09:11:59;100073.94;;;15.21;96.55
15634;BME280;14654;48.898;8.308;2023-04-02T09:17:20;100077.72;;;15.39;95.20
15634;BME280;14654;48.898;8.308;2023-04-02T09:20:14;100083.28;;;15.55;94.47
15634;BME280;14654;48.898;8.308;2023-04-02T09:22:43;100087.88;;;15.74;93.33
15634;BME280;14654;48.898;8.308;2023-04-02T09:25:14;100084.63;;;15.94;92.55
15634;BME280;14654;48.898;8.308;2023-04-02T09:27:41;100092.38;;;16.21;91.38
15634;BME280;14654;48.898;8.308;2023-04-02T09:30:28;100094.13;;;16.46;89.32
15634;BME280;14654;48.898;8.308;2023-04-02T09:32:58;100101.28;;;16.65;88.54
15634;BME280;14654;48.898;8.308;2023-04-02T09:35:28;100103.94;;;16.87;88.20
15634;BME280;14654;48.898;8.308;2023-04-02T09:41:19;100112.22;;;17.22;86.77
15634;BME280;14654;48.898;8.308;2023-04-02T09:43:45;100113.50;;;17.34;86.19
15634;BME280;14654;48.898;8.308;2023-04-02T09:46:22;100117.31;;;17.47;85.32
15634;BME280;14654;48.898;8.308;2023-04-02T09:48:56;100114.97;;;17.62;85.23
15634;BME280;14654;48.898;8.308;2023-04-02T09:51:26;100116.13;;;17.77;84.74
15634;BME280;14654;48.898;8.308;2023-04-02T09:56:28;100123.22;;;18.16;82.66
15634;BME280;14654;48.898;8.308;2023-04-02T09:59:20;100113.00;;;18.31;82.18
15634;BME280;14654;48.898;8.308;2023-04-02T10:02:30;100118.72;;;18.39;81.61
15634;BME280;14654;48.898;8.308;2023-04-02T10:04:45;100119.75;;;18.55;80.13
15634;BME280;14654;48.898;8.308;2023-04-02T10:10:02;100120.50;;;18.59;79.84
15634;BME280;14654;48.898;8.308;2023-04-02T10:12:32;100126.44;;;18.63;80.35
15634;BME280;14654;48.898;8.308;2023-04-02T10:15:02;100123.59;;;18.67;80.07
15634;BME280;14654;48.898;8.308;2023-04-02T10:17:31;100132.38;;;18.66;79.64
15634;BME280;14654;48.898;8.308;2023-04-02T10:20:04;100136.00;;;18.64;79.36
15634;BME280;14654;48.898;8.308;2023-04-02T10:22:31;100132.38;;;18.66;79.37
15634;BME280;14654;48.898;8.308;2023-04-02T10:24:57;100133.94;;;18.70;78.64
15634;BME280;14654;48.898;8.308;2023-04-02T10:27:33;100129.41;;;18.74;78.34
15634;BME280;14654;48.898;8.308;2023-04-02T10:30:12;100141.34;;;18.81;78.19
15634;BME280;14654;48.898;8.308;2023-04-02T10:41:32;100143.94;;;19.39;74.76
15634;BME280;14654;48.898;8.308;2023-04-02T10:47:17;100149.84;;;19.61;74.81
15634;BME280;14654;48.898;8.308;2023-04-02T10:52:30;100152.69;;;19.74;73.26
15634;BME280;14654;48.898;8.308;2023-04-02T10:55:15;100163.19;;;19.74;73.14
15634;BME280;14654;48.898;8.308;2023-04-02T10:57:43;100160.22;;;19.64;72.05
15634;BME280;14654;48.898;8.308;2023-04-02T11:07:57;100170.22;;;18.80;72.55
15634;BME280;14654;48.898;8.308;2023-04-02T11:10:25;100180.22;;;18.51;72.62
15634;BME280;14654;48.898;8.308;2023-04-02T11:12:58;100172.59;;;18.25;72.69
15634;BME280;14654;48.898;8.308;2023-04-02T11:15:27;100180.06;;;17.92;74.20
15634;BME280;14654;48.898;8.308;2023-04-02T11:17:53;100179.91;;;17.74;75.03
15634;BME280;14654;48.898;8.308;2023-04-02T11:23:12;100192.16;;;17.29;75.99
15634;BME280;14654;48.898;8.308;2023-04-02T11:25:38;100193.81;;;17.08;75.62
15634;BME280;14654;48.898;8.308;2023-04-02T11:28:27;100194.28;;;16.94;76.29
15634;BME280;14654;48.898;8.308;2023-04-02T11:30:54;100201.50;;;16.87;75.99
15634;BME280;14654;48.898;8.308;2023-04-02T11:33:40;100202.78;;;16.75;75.96
15634;BME280;14654;48.898;8.308;2023-04-02T11:39:10;100202.66;;;16.29;73.57
15634;BME280;14654;48.898;8.308;2023-04-02T11:42:00;100203.22;;;16.12;74.21
15634;BME280;14654;48.898;8.308;2023-04-02T11:44:26;100205.88;;;16.11;74.55
15634;BME280;14654;48.898;8.308;2023-04-02T11:46:51;100210.03;;;16.17;74.44
15634;BME280;14654;48.898;8.308;2023-04-02T11:49:37;100219.50;;;16.21;74.74
15634;BME280;14654;48.898;8.308;2023-04-02T11:52:04;100223.31;;;16.10;78.05
15634;BME280;14654;48.898;8.308;2023-04-02T11:54:42;100216.03;;;15.93;78.91
15634;BME280;14654;48.898;8.308;2023-04-02T11:57:19;100217.94;;;15.88;80.42
15634;BME280;14654;48.898;8.308;2023-04-02T12:00:17;100218.03;;;15.85;80.70
15634;BME280;14654;48.898;8.308;2023-04-02T12:03:06;100225.59;;;15.64;81.34
15634;BME280;14654;48.898;8.308;2023-04-02T12:05:41;100230.06;;;15.61;81.66
15634;BME280;14654;48.898;8.308;2023-04-02T12:10:57;100232.81;;;15.56;81.52
15634;BME280;14654;48.898;8.308;2023-04-02T12:16:05;100240.19;;;15.70;80.07
15634;BME280;14654;48.898;8.308;2023-04-02T12:18:32;100234.75;;;15.78;79.83
15634;BME280;14654;48.898;8.308;2023-04-02T12:20:58;100243.47;;;15.77;80.85
15634;BME280;14654;48.898;8.308;2023-04-02T12:23:29;100238.22;;;15.78;81.65
15634;BME280;14654;48.898;8.308;2023-04-02T12:26:02;100247.88;;;15.75;83.19
15634;BME280;14654;48.898;8.308;2023-04-02T12:28:31;100248.34;;;15.59;84.12
15634;BME280;14654;48.898;8.308;2023-04-02T12:31:11;100248.50;;;15.54;83.45
15634;BME280;14654;48.898;8.308;2023-04-02T12:33:39;100256.00;;;15.65;83.78
15634;BME280;14654;48.898;8.308;2023-04-02T12:36:25;100255.00;;;15.69;83.27
15634;BME280;14654;48.898;8.308;2023-04-02T12:38:57;100264.78;;;15.63;82.77
15634;BME280;14654;48.898;8.308;2023-04-02T12:41:28;100261.03;;;15.72;82.59
15634;BME280;14654;48.898;8.308;2023-04-02T12:44:03;100265.91;;;15.82;81.82
15634;BME280;14654;48.898;8.308;2023-04-02T12:46:29;100270.91;;;15.90;81.39
15634;BME280;14654;48.898;8.308;2023-04-02T12:49:06;100276.00;;;15.95;80.38
15634;BME280;14654;48.898;8.308;2023-04-02T12:51:34;100274.31;;;15.94;79.48
15634;BME280;14654;48.898;8.308;2023-04-02T12:54:00;100281.13;;;15.98;79.37
15634;BME280;14654;48.898;8.308;2023-04-02T12:56:26;100278.00;;;15.87;79.40
15634;BME280;14654;48.898;8.308;2023-04-02T13:01:22;100282.44;;;16.11;79.17
15634;BME280;14654;48.898;8.308;2023-04-02T13:04:02;100275.47;;;16.12;78.35
15634;BME280;14654;48.898;8.308;2023-04-02T13:06:28;100283.06;;;16.20;78.30
15634;BME280;14654;48.898;8.308;2023-04-02T13:08:55;100287.88;;;16.32;78.00
15634;BME280;14654;48.898;8.308;2023-04-02T13:11:21;100286.34;;;15.98;83.32
15634;BME280;14654;48.898;8.308;2023-04-02T13:13:48;100298.63;;;15.64;87.09
15634;BME280;14654;48.898;8.308;2023-04-02T13:18:40;100299.28;;;14.78;91.55
15634;BME280;14654;48.898;8.308;2023-04-02T13:23:40;100306.31;;;14.38;94.60
15634;BME280;14654;48.898;8.308;2023-04-02T13:28:37;100319.81;;;14.20;96.63
15634;BME280;14654;48.898;8.308;2023-04-02T13:31:02;100325.91;;;14.17;94.62
15634;BME280;14654;48.898;8.308;2023-04-02T13:33:28;100328.03;;;14.01;95.34
15634;BME280;14654;48.898;8.308;2023-04-02T13:35:53;100329.91;;;13.94;95.96
15634;BME280;14654;48.898;8.308;2023-04-02T13:38:18;100325.09;;;13.76;96.38
15634;BME280;14654;48.898;8.308;2023-04-02T13:40:44;100327.31;;;13.53;97.18
15634;BME280;14654;48.898;8.308;2023-04-02T13:43:17;100331.22;;;13.31;98.58
15634;BME280;14654;48.898;8.308;2023-04-02T13:45:47;100341.94;;;13.12;99.79
15634;BME280;14654;48.898;8.308;2023-04-02T13:48:14;100343.38;;;12.80;100.00
15634;BME280;14654;48.898;8.308;2023-04-02T13:50:40;100342.81;;;12.62;100.00
15634;BME280;14654;48.898;8.308;2023-04-02T13:53:10;100339.53;;;12.49;100.00
15634;BME280;14654;48.898;8.308;2023-04-02T13:55:38;100349.41;;;12.29;100.00
15634;BME280;14654;48.898;8.308;2023-04-02T13:58:05;100354.81;;;12.13;100.00
15634;BME280;14654;48.898;8.308;2023-04-02T14:00:31;100357.28;;;12.21;100.00
15634;BME280;14654;48.898;8.308;2023-04-02T14:03:02;100366.13;;;12.08;100.00
15634;BME280;14654;48.898;8.308;2023-04-02T14:05:43;100378.25;;;12.04;100.00
15634;BME280;14654;48.898;8.308;2023-04-02T14:11:18;100375.81;;;11.92;100.00
15634;BME280;14654;48.898;8.308;2023-04-02T14:17:49;100387.47;;;11.58;100.00
15634;BME280;14654;48.898;8.308;2023-04-02T14:22:27;100397.97;;;11.44;100.00
15634;BME280;14654;48.898;8.308;2023-04-02T14:25:22;100403.22;;;11.38;100.00
15634;BME280;14654;48.898;8.308;2023-04-02T14:30:54;100399.97;;;11.17;100.00
15634;BME280;14654;48.898;8.308;2023-04-02T14:36:26;100412.94;;;11.14;100.00
15634;BME280;14654;48.898;8.308;2023-04-02T14:39:07;100404.41;;;11.03;100.00
15634;BME280;14654;48.898;8.308;2023-04-02T14:44:22;100421.94;;;10.73;100.00
15634;BME280;14654;48.898;8.308;2023-04-02T14:46:48;100425.50;;;10.56;100.00
15634;BME280;14654;48.898;8.308;2023-04-02T14:49:24;100429.06;;;10.41;100.00
15634;BME280;14654;48.898;8.308;2023-04-02T14:52:02;100428.16;;;10.37;100.00
15634;BME280;14654;48.898;8.308;2023-04-02T14:55:00;100435.97;;;10.28;100.00
15634;BME280;14654;48.898;8.308;2023-04-02T14:57:35;100432.63;;;10.12;100.00
15634;BME280;14654;48.898;8.308;2023-04-02T15:00:25;100443.00;;;10.03;100.00
15634;BME280;14654;48.898;8.308;2023-04-02T15:03:04;100447.31;;;9.96;100.00
15634;BME280;14654;48.898;8.308;2023-04-02T15:05:38;100449.06;;;9.93;100.00
15634;BME280;14654;48.898;8.308;2023-04-02T15:11:05;100445.59;;;9.92;100.00
15634;BME280;14654;48.898;8.308;2023-04-02T15:16:22;100463.75;;;9.81;100.00
15634;BME280;14654;48.898;8.308;2023-04-02T15:18:59;100466.34;;;9.75;100.00
15634;BME280;14654;48.898;8.308;2023-04-02T15:24:18;100469.81;;;9.72;100.00
15634;BME280;14654;48.898;8.308;2023-04-02T15:37:22;100484.47;;;9.70;100.00
15634;BME280;14654;48.898;8.308;2023-04-02T15:45:32;100500.84;;;9.68;100.00
15634;BME280;14654;48.898;8.308;2023-04-02T16:12:46;100546.41;;;8.82;100.00
15634;BME280;14654;48.898;8.308;2023-04-02T16:15:17;100561.88;;;8.69;100.00
15634;BME280;14654;48.898;8.308;2023-04-02T16:17:51;100567.03;;;8.60;100.00
15634;BME280;14654;48.898;8.308;2023-04-02T16:20:23;100563.53;;;8.57;100.00
15634;BME280;14654;48.898;8.308;2023-04-02T16:23:28;100569.56;;;8.52;100.00
15634;BME280;14654;48.898;8.308;2023-04-02T16:34:10;100584.03;;;8.29;100.00
15634;BME280;14654;48.898;8.308;2023-04-02T16:58:48;100617.34;;;7.96;100.00
15634;BME280;14654;48.898;8.308;2023-04-02T17:01:58;100620.63;;;7.76;100.00
15634;BME280;14654;48.898;8.308;2023-04-02T17:04:52;100632.56;;;7.63;100.00
15634;BME280;14654;48.898;8.308;2023-04-02T17:07:33;100644.34;;;7.38;100.00
15634;BME280;14654;48.898;8.308;2023-04-02T17:10:23;100644.34;;;7.38;100.00
15634;BME280;14654;48.898;8.308;2023-04-02T17:15:36;100646.94;;;7.41;100.00
15634;BME280;14654;48.898;8.308;2023-04-02T17:18:15;100657.28;;;7.46;100.00
15634;BME280;14654;48.898;8.308;2023-04-02T17:20:42;100664.13;;;7.44;100.00